sensor_id;sensor_type;location;lat;lon;timestamp;pressure;altitude;pressure_sealevel;temperature;humidity
57498;BME280;43336;51.416;-0.810;2023-04-15T11:26:57;101313.00;;;9.23;78.93
57498;BME280;43336;51.416;-0.810;2023-04-15T11:29:58;101284.34;;;8.77;81.52
57498;BME280;43336;51.416;-0.810;2023-04-15T11:33:02;101283.31;;;8.58;80.33
57498;BME280;43336;51.416;-0.810;2023-04-15T11:36:03;101266.53;;;8.43;79.48
57498;BME280;43336;51.416;-0.810;2023-04-15T11:39:06;101277.06;;;8.39;80.62
57498;BME280;43336;51.416;-0.810;2023-04-15T11:42:16;101372.16;;;8.96;80.52
57498;BME280;43336;51.416;-0.810;2023-04-15T11:45:17;101308.06;;;8.45;79.47
57498;BME280;43336;51.416;-0.810;2023-04-15T11:48:20;101323.19;;;8.58;79.89
57498;BME280;43336;51.416;-0.810;2023-04-15T11:51:21;101399.06;;;8.95;79.46
57498;BME280;43336;51.416;-0.810;2023-04-15T11:54:25;101302.25;;;8.36;79.31
57498;BME280;43336;51.416;-0.810;2023-04-15T11:57:31;101302.41;;;8.32;79.49
57498;BME280;43336;51.416;-0.810;2023-04-15T12:10:04;101337.38;;;8.50;80.15
57498;BME280;43336;51.416;-0.810;2023-04-15T12:13:06;101413.69;;;8.99;79.91
57498;BME280;43336;51.416;-0.810;2023-04-15T12:16:06;101324.50;;;8.45;80.87
57498;BME280;43336;51.416;-0.810;2023-04-15T12:19:12;101317.72;;;8.41;81.09
57498;BME280;43336;51.416;-0.810;2023-04-15T12:22:15;101416.16;;;9.02;81.53
57498;BME280;43336;51.416;-0.810;2023-04-15T12:25:16;101265.06;;;8.09;82.69
57498;BME280;43336;51.416;-0.810;2023-04-15T12:28:17;101107.78;;;6.98;81.78
57498;BME280;43336;51.416;-0.810;2023-04-15T12:31:18;101177.75;;;7.54;81.98
57498;BME280;43336;51.416;-0.810;2023-04-15T12:37:27;101405.06;;;8.97;81.33
57498;BME280;43336;51.416;-0.810;2023-04-15T12:40:27;101175.88;;;7.57;80.84
57498;BME280;43336;51.416;-0.810;2023-04-15T12:43:30;101443.53;;;9.14;81.90
57498;BME280;43336;51.416;-0.810;2023-04-15T12:46:31;101291.28;;;8.28;81.07
57498;BME280;43336;51.416;-0.810;2023-04-15T12:49:32;101407.81;;;9.17;79.89
57498;BME280;43336;51.416;-0.810;2023-04-15T12:52:32;101199.06;;;7.63;79.66
57498;BME280;43336;51.416;-0.810;2023-04-15T12:55:33;101087.41;;;7.12;80.83
57498;BME280;43336;51.416;-0.810;2023-04-15T12:58:34;101290.84;;;8.16;78.96
57498;BME280;43336;51.416;-0.810;2023-04-15T13:01:35;101380.19;;;8.65;80.86
57498;BME280;43336;51.416;-0.810;2023-04-15T13:04:36;101402.66;;;8.92;79.66
57498;BME280;43336;51.416;-0.810;2023-04-15T13:07:37;101382.03;;;8.86;80.07
57498;BME280;43336;51.416;-0.810;2023-04-15T13:10:38;101145.97;;;7.21;80.32
57498;BME280;43336;51.416;-0.810;2023-04-15T13:13:39;101451.47;;;9.34;80.82
57498;BME280;43336;51.416;-0.810;2023-04-15T13:16:39;101150.34;;;7.45;80.07
57498;BME280;43336;51.416;-0.810;2023-04-15T13:19:41;101332.66;;;8.59;79.61
57498;BME280;43336;51.416;-0.810;2023-04-15T13:22:41;101368.03;;;8.65;79.97
57498;BME280;43336;51.416;-0.810;2023-04-15T13:25:42;101167.16;;;7.60;80.02
57498;BME280;43336;51.416;-0.810;2023-04-15T13:28:44;101114.56;;;7.02;80.34
57498;BME280;43336;51.416;-0.810;2023-04-15T13:31:53;101386.06;;;8.95;80.49
57498;BME280;43336;51.416;-0.810;2023-04-15T13:34:59;101476.72;;;9.55;79.98
57498;BME280;43336;51.416;-0.810;2023-04-15T13:38:06;101468.47;;;9.44;79.22
57498;BME280;43336;51.416;-0.810;2023-04-15T13:41:07;101382.66;;;8.93;78.12
57498;BME280;43336;51.416;-0.810;2023-04-15T13:44:08;101395.56;;;8.96;77.75
57498;BME280;43336;51.416;-0.810;2023-04-15T13:47:09;101442.00;;;9.31;78.42
57498;BME280;43336;51.416;-0.810;2023-04-15T13:50:10;101448.88;;;9.34;77.20
57498;BME280;43336;51.416;-0.810;2023-04-15T14:09:15;101486.75;;;9.66;77.86
57498;BME280;43336;51.416;-0.810;2023-04-15T14:12:16;101197.03;;;7.98;77.69
57498;BME280;43336;51.416;-0.810;2023-04-15T14:15:16;101511.94;;;9.89;77.59
57498;BME280;43336;51.416;-0.810;2023-04-15T14:18:17;101337.81;;;8.86;77.77
57498;BME280;43336;51.416;-0.810;2023-04-15T14:21:18;101242.13;;;8.21;77.61
57498;BME280;43336;51.416;-0.810;2023-04-15T14:30:39;101441.22;;;9.53;77.40
57498;BME280;43336;51.416;-0.810;2023-04-15T14:33:48;101444.00;;;9.48;78.16
57498;BME280;43336;51.416;-0.810;2023-04-15T14:36:57;101184.59;;;8.06;78.12
57498;BME280;43336;51.416;-0.810;2023-04-15T14:40:05;101256.78;;;8.48;77.72
57498;BME280;43336;51.416;-0.810;2023-04-15T14:43:06;101419.75;;;9.46;77.60
57498;BME280;43336;51.416;-0.810;2023-04-15T14:46:07;101157.78;;;7.81;77.77
57498;BME280;43336;51.416;-0.810;2023-04-15T15:36:41;101502.56;;;10.52;78.35
57498;BME280;43336;51.416;-0.810;2023-04-15T15:39:44;101454.09;;;10.25;78.44
57498;BME280;43336;51.416;-0.810;2023-04-15T15:42:45;101566.38;;;10.88;79.16
57498;BME280;43336;51.416;-0.810;2023-04-15T15:45:49;101541.81;;;10.71;79.03
57498;BME280;43336;51.416;-0.810;2023-04-15T15:48:52;101500.03;;;10.51;79.33
57498;BME280;43336;51.416;-0.810;2023-04-15T15:51:54;101483.41;;;10.32;79.18
57498;BME280;43336;51.416;-0.810;2023-04-15T15:54:55;101459.59;;;10.17;78.89
57498;BME280;43336;51.416;-0.810;2023-04-15T15:57:56;101203.88;;;8.73;79.00
57498;BME280;43336;51.416;-0.810;2023-04-15T16:00:56;101558.38;;;10.92;79.13
57498;BME280;43336;51.416;-0.810;2023-04-15T16:03:57;101499.41;;;10.66;78.47
57498;BME280;43336;51.416;-0.810;2023-04-15T16:06:58;101497.81;;;10.62;78.09
57498;BME280;43336;51.416;-0.810;2023-04-15T16:09:59;101548.44;;;11.01;78.90
57498;BME280;43336;51.416;-0.810;2023-04-15T16:13:00;101440.66;;;10.36;78.53
57498;BME280;43336;51.416;-0.810;2023-04-15T16:16:01;101412.50;;;10.22;79.08
57498;BME280;43336;51.416;-0.810;2023-04-15T16:19:02;101568.88;;;11.11;79.52
57498;BME280;43336;51.416;-0.810;2023-04-15T16:28:23;101245.78;;;9.56;77.07
57498;BME280;43336;51.416;-0.810;2023-04-15T16:31:24;101459.81;;;11.18;73.05
57498;BME280;43336;51.416;-0.810;2023-04-15T16:34:25;101573.88;;;12.35;67.25
57498;BME280;43336;51.416;-0.810;2023-04-15T16:43:56;101576.28;;;11.63;77.58
57498;BME280;43336;51.416;-0.810;2023-04-15T16:53:22;101455.47;;;10.78;79.07
57498;BME280;43336;51.416;-0.810;2023-04-15T16:56:23;101434.00;;;10.71;79.36
57498;BME280;43336;51.416;-0.810;2023-04-15T16:59:24;101336.47;;;10.11;79.79
57498;BME280;43336;51.416;-0.810;2023-04-15T17:02:28;101235.00;;;9.43;80.00
57498;BME280;43336;51.416;-0.810;2023-04-15T17:05:29;101522.22;;;11.24;80.16
57498;BME280;43336;51.416;-0.810;2023-04-15T17:08:31;101274.63;;;9.72;80.25
57498;BME280;43336;51.416;-0.810;2023-04-15T17:14:46;101520.66;;;11.20;80.82
57498;BME280;43336;51.416;-0.810;2023-04-15T18:41:08;101655.84;;;11.56;81.20
57498;BME280;43336;51.416;-0.810;2023-04-15T18:44:11;101599.91;;;11.19;81.72
57498;BME280;43336;51.416;-0.810;2023-04-15T18:47:12;101590.22;;;11.01;81.01
57498;BME280;43336;51.416;-0.810;2023-04-15T18:50:13;101608.53;;;11.21;80.98
57498;BME280;43336;51.416;-0.810;2023-04-15T18:53:13;101688.84;;;11.58;80.66
57498;BME280;43336;51.416;-0.810;2023-04-15T18:56:14;101693.88;;;11.63;80.86
57498;BME280;43336;51.416;-0.810;2023-04-15T18:59:15;101723.56;;;11.62;80.70
57498;BME280;43336;51.416;-0.810;2023-04-15T19:02:16;101608.72;;;10.94;80.25
57498;BME280;43336;51.416;-0.810;2023-04-15T19:05:17;101267.09;;;8.98;79.89
57498;BME280;43336;51.416;-0.810;2023-04-15T19:08:18;101487.84;;;10.06;79.69
57498;BME280;43336;51.416;-0.810;2023-04-15T19:11:18;101663.91;;;11.29;79.45
57498;BME280;43336;51.416;-0.810;2023-04-15T19:14:19;101697.50;;;11.38;79.20
57498;BME280;43336;51.416;-0.810;2023-04-15T19:17:20;101498.25;;;10.08;79.42
57498;BME280;43336;51.416;-0.810;2023-04-15T19:20:21;101376.59;;;9.17;79.07
57498;BME280;43336;51.416;-0.810;2023-04-15T19:23:22;101690.56;;;11.15;79.27
57498;BME280;43336;51.416;-0.810;2023-04-15T19:26:23;101674.13;;;11.13;78.79
57498;BME280;43336;51.416;-0.810;2023-04-15T19:29:24;101736.97;;;11.53;79.20
57498;BME280;43336;51.416;-0.810;2023-04-15T19:32:25;101635.88;;;10.90;78.70
57498;BME280;43336;51.416;-0.810;2023-04-15T19:35:27;101657.50;;;10.94;78.76
